createdAt,value
2022-09-14T00:01:55.955Z,72.03
2022-09-14T00:04:26.224Z,71.97
2022-09-14T00:06:56.314Z,72.02
2022-09-14T00:09:26.483Z,71.78
2022-09-14T00:11:56.884Z,71.84
2022-09-14T00:14:27.024Z,71.90
2022-09-14T00:16:59.508Z,71.73
2022-09-14T00:19:29.805Z,72.00
2022-09-14T00:22:00.473Z,71.96
2022-09-14T00:24:35.209Z,71.91
2022-09-14T00:27:05.358Z,71.87
2022-09-14T00:29:35.510Z,71.92
2022-09-14T00:32:05.694Z,71.84
2022-09-14T00:34:36.012Z,71.90
2022-09-14T00:37:06.164Z,71.80
2022-09-14T00:39:36.847Z,71.76
2022-09-14T00:42:07.670Z,71.75
2022-09-14T00:44:37.726Z,71.87
2022-09-14T00:47:08.231Z,71.80
2022-09-14T00:49:41.101Z,71.60
2022-09-14T00:52:13.591Z,71.83
2022-09-14T00:55:08.672Z,71.72
2022-09-14T00:57:44.322Z,71.54
2022-09-14T01:00:19.697Z,71.69
2022-09-14T01:02:50.182Z,71.18
2022-09-14T01:05:27.912Z,71.44
2022-09-14T01:08:22.996Z,72.18
2022-09-14T01:11:28.628Z,72.17
2022-09-14T01:14:34.849Z,71.95
2022-09-14T01:17:33.120Z,71.84
2022-09-14T01:20:25.051Z,71.85
2022-09-14T01:23:14.060Z,71.94
2022-09-14T01:26:16.752Z,72.01
2022-09-14T01:29:25.515Z,72.12
2022-09-14T01:32:00.083Z,71.62
2022-09-14T01:34:37.041Z,71.50
2022-09-14T01:37:25.420Z,71.94
2022-09-14T01:40:02.524Z,71.47
2022-09-14T01:42:34.707Z,71.29
2022-09-14T01:45:11.242Z,71.34
2022-09-14T01:47:50.581Z,71.52
2022-09-14T01:50:29.243Z,71.43
2022-09-14T01:53:06.058Z,71.23
2022-09-14T01:55:56.436Z,71.73
2022-09-14T01:58:38.321Z,71.31
2022-09-14T02:01:11.750Z,71.29
2022-09-14T02:03:56.887Z,71.83
2022-09-14T02:06:39.747Z,71.56
2022-09-14T02:09:12.399Z,71.25
2022-09-14T02:11:42.690Z,71.29
2022-09-14T02:14:13.058Z,71.26
2022-09-14T02:16:46.413Z,71.33
2022-09-14T02:19:20.536Z,71.40
2022-09-14T02:21:53.971Z,71.31
2022-09-14T02:24:24.157Z,71.47
2022-09-14T02:26:58.326Z,71.50
2022-09-14T02:29:28.483Z,71.39
2022-09-14T02:32:22.716Z,71.77
2022-09-14T02:35:02.350Z,71.22
2022-09-14T02:37:35.419Z,71.13
2022-09-14T02:40:37.709Z,71.72
2022-09-14T02:43:30.820Z,71.74
2022-09-14T02:46:15.668Z,71.15
2022-09-14T02:48:56.087Z,71.10
2022-09-14T02:51:35.280Z,70.87
2022-09-14T02:54:29.221Z,71.16
2022-09-14T02:57:03.668Z,70.90
2022-09-14T02:59:34.006Z,70.93
2022-09-14T03:02:04.634Z,70.92
2022-09-14T03:04:34.865Z,71.03
2022-09-14T03:07:05.055Z,71.21
2022-09-14T03:09:35.188Z,71.07
2022-09-14T03:12:05.414Z,71.17
2022-09-14T03:14:35.592Z,71.16
2022-09-14T03:17:06.670Z,71.03
2022-09-14T03:19:36.859Z,71.05
2022-09-14T03:22:07.021Z,71.11
2022-09-14T03:24:37.683Z,71.05
2022-09-14T03:27:07.785Z,71.13
2022-09-14T03:29:37.870Z,71.09
2022-09-14T03:32:08.113Z,71.26
2022-09-14T03:34:38.694Z,71.35
2022-09-14T03:37:08.717Z,71.36
2022-09-14T03:39:38.839Z,71.19
2022-09-14T03:42:08.999Z,71.01
2022-09-14T03:44:39.196Z,71.34
2022-09-14T03:47:09.302Z,71.42
2022-09-14T03:49:39.454Z,71.27
2022-09-14T03:52:09.523Z,71.50
2022-09-14T03:54:39.621Z,71.46
2022-09-14T03:57:10.037Z,71.32
2022-09-14T03:59:43.597Z,71.39
2022-09-14T04:02:14.214Z,71.45
2022-09-14T04:04:44.419Z,71.44
2022-09-14T04:07:15.951Z,71.53
2022-09-14T04:09:46.157Z,71.63
2022-09-14T04:12:16.276Z,71.51
2022-09-14T04:14:46.453Z,71.50
2022-09-14T04:17:17.832Z,71.59
2022-09-14T04:19:47.904Z,71.43
2022-09-14T04:22:18.054Z,71.52
2022-09-14T04:24:48.178Z,71.46
2022-09-14T04:27:18.235Z,71.45
2022-09-14T04:29:50.479Z,71.60
2022-09-14T04:32:20.518Z,71.60
2022-09-14T04:34:50.880Z,71.64
2022-09-14T04:37:37.186Z,71.58
2022-09-14T04:40:08.110Z,71.54
2022-09-14T04:42:38.223Z,71.35
2022-09-14T04:45:08.796Z,71.36
2022-09-14T04:47:39.167Z,71.35
2022-09-14T04:50:09.598Z,71.39
2022-09-14T04:52:39.744Z,71.39
2022-09-14T04:55:10.412Z,71.50
2022-09-14T04:57:40.484Z,71.49
2022-09-14T05:00:11.130Z,71.53
2022-09-14T05:02:42.157Z,71.37
2022-09-14T05:05:12.467Z,71.50
2022-09-14T05:07:42.608Z,71.39
2022-09-14T05:10:12.792Z,71.57
2022-09-14T05:12:42.915Z,71.48
2022-09-14T05:15:13.162Z,71.58
2022-09-14T05:17:43.268Z,71.58
2022-09-14T05:20:13.447Z,71.49
2022-09-14T05:22:43.498Z,71.57
2022-09-14T05:25:13.798Z,71.44
2022-09-14T05:27:43.849Z,71.37
2022-09-14T05:30:14.116Z,71.42
2022-09-14T05:32:44.580Z,71.24
2022-09-14T05:35:14.848Z,71.14
2022-09-14T05:37:44.972Z,71.31
2022-09-14T05:40:15.233Z,71.36
2022-09-14T05:42:45.410Z,71.35
2022-09-14T05:45:15.685Z,71.42
2022-09-14T05:47:45.851Z,71.41
2022-09-14T05:50:16.273Z,71.19
2022-09-14T05:52:49.699Z,71.84
2022-09-14T05:55:20.767Z,71.95
2022-09-14T05:57:51.886Z,71.83
2022-09-14T06:00:22.656Z,71.74
2022-09-14T06:02:54.687Z,71.81
2022-09-14T06:05:28.376Z,71.62
2022-09-14T06:07:58.520Z,71.98
2022-09-14T06:10:30.134Z,72.07
2022-09-14T06:13:00.601Z,72.78
2022-09-14T06:15:30.746Z,72.33
2022-09-14T06:18:01.315Z,72.77
2022-09-14T06:20:31.464Z,72.85
2022-09-14T06:23:01.564Z,72.85
2022-09-14T06:25:31.786Z,73.02
2022-09-14T06:28:02.152Z,73.04
2022-09-14T06:30:32.404Z,73.05
2022-09-14T06:33:07.989Z,73.47
2022-09-14T06:35:38.198Z,73.47
2022-09-14T06:38:09.377Z,73.40
2022-09-14T06:40:39.485Z,73.41
2022-09-14T06:43:09.536Z,73.25
2022-09-14T06:45:39.743Z,73.18
2022-09-14T06:48:09.970Z,73.36
2022-09-14T06:50:40.181Z,73.61
2022-09-14T06:53:10.325Z,73.36
2022-09-14T06:55:40.556Z,73.08
2022-09-14T06:58:10.704Z,73.23
2022-09-14T07:00:40.952Z,73.25
2022-09-14T07:03:11.147Z,73.13
2022-09-14T07:05:41.360Z,73.12
2022-09-14T07:08:12.474Z,73.27
2022-09-14T07:10:44.674Z,73.08
2022-09-14T07:13:14.771Z,73.17
2022-09-14T07:15:50.488Z,73.13
2022-09-14T07:18:20.575Z,73.30
2022-09-14T07:20:50.706Z,73.13
2022-09-14T07:23:20.937Z,72.44
2022-09-14T07:26:00.464Z,72.00
2022-09-14T07:28:32.870Z,71.87
2022-09-14T07:31:05.156Z,71.81
2022-09-14T07:33:35.310Z,71.61
2022-09-14T07:36:10.451Z,71.54
2022-09-14T07:38:52.245Z,71.29
2022-09-14T07:41:25.866Z,70.56
2022-09-14T07:44:00.675Z,70.74
2022-09-14T07:46:36.041Z,70.85
2022-09-14T07:49:07.839Z,70.53
2022-09-14T07:51:38.857Z,70.61
2022-09-14T07:54:12.612Z,70.18
2022-09-14T07:56:43.771Z,70.36
2022-09-14T07:59:34.984Z,69.65
2022-09-14T08:02:10.464Z,69.67
2022-09-14T08:04:40.678Z,69.32
2022-09-14T08:07:10.985Z,69.27
2022-09-14T08:09:41.062Z,69.17
2022-09-14T08:12:11.520Z,69.34
2022-09-14T08:14:42.017Z,69.17
2022-09-14T08:17:12.201Z,68.66
2022-09-14T08:19:42.249Z,68.44
2022-09-14T08:22:12.618Z,68.01
2022-09-14T08:24:42.755Z,67.94
2022-09-14T08:27:12.938Z,68.03
2022-09-14T08:29:43.174Z,67.66
2022-09-14T08:32:13.963Z,67.41
2022-09-14T08:34:44.141Z,67.43
2022-09-14T08:37:16.867Z,67.32
2022-09-14T08:39:51.510Z,67.25
2022-09-14T08:42:25.284Z,66.57
2022-09-14T08:45:01.980Z,66.23
2022-09-14T08:47:42.260Z,66.19
2022-09-14T08:50:17.749Z,65.35
2022-09-14T08:52:53.089Z,65.22
2022-09-14T08:55:32.134Z,64.52
2022-09-14T08:58:29.474Z,63.38
2022-09-14T09:01:13.486Z,64.91
2022-09-14T09:03:55.641Z,63.15
2022-09-14T09:06:52.740Z,63.77
2022-09-14T09:09:25.695Z,64.39
2022-09-14T09:11:56.464Z,64.47
2022-09-14T09:14:52.281Z,62.85
2022-09-14T09:17:31.224Z,62.42
2022-09-14T09:20:17.468Z,61.97
2022-09-14T09:23:01.524Z,62.67
2022-09-14T09:25:46.795Z,61.73
2022-09-14T09:28:18.475Z,63.28
2022-09-14T09:30:48.802Z,63.32
2022-09-14T09:33:24.417Z,62.59
2022-09-14T09:35:55.701Z,62.81
2022-09-14T09:38:29.057Z,62.11
2022-09-14T09:41:09.328Z,60.30
2022-09-14T09:44:03.379Z,59.65
2022-09-14T09:46:36.392Z,61.53
2022-09-14T09:49:25.964Z,59.74
2022-09-14T09:51:56.607Z,61.76
2022-09-14T09:54:32.450Z,61.35
2022-09-14T09:57:06.933Z,61.34
2022-09-14T09:59:42.633Z,60.24
2022-09-14T10:02:23.899Z,59.72
2022-09-14T10:05:05.145Z,59.67
2022-09-14T10:07:40.665Z,59.81
2022-09-14T10:10:14.534Z,60.84
2022-09-14T10:12:51.024Z,60.05
2022-09-14T10:15:21.094Z,58.12
2022-09-14T10:18:18.282Z,58.48
2022-09-14T10:20:54.372Z,59.58
2022-09-14T10:23:30.722Z,59.41
2022-09-14T10:26:13.044Z,59.01
2022-09-14T10:28:45.544Z,60.49
2022-09-14T10:31:16.094Z,60.57
2022-09-14T10:33:57.395Z,59.80
2022-09-14T10:36:42.701Z,58.86
2022-09-14T10:39:16.317Z,59.89
2022-09-14T10:42:32.831Z,58.58
2022-09-14T10:45:15.210Z,58.39
2022-09-14T10:48:15.636Z,58.23
2022-09-14T10:50:54.163Z,59.03
2022-09-14T10:53:55.531Z,58.31
2022-09-14T10:56:53.647Z,57.15
2022-09-14T10:59:40.554Z,59.00
2022-09-14T11:02:32.056Z,59.29
2022-09-14T11:05:36.527Z,57.97
2022-09-14T11:08:22.168Z,57.72
2022-09-14T11:11:14.833Z,58.61
2022-09-14T11:14:09.569Z,58.79
2022-09-14T11:17:08.906Z,59.69
2022-09-14T11:19:53.122Z,59.56
2022-09-14T11:22:42.091Z,59.24
2022-09-14T11:25:24.227Z,59.67
2022-09-14T11:28:03.667Z,59.78
2022-09-14T11:30:43.237Z,59.00
2022-09-14T11:33:19.531Z,59.49
2022-09-14T11:35:55.178Z,58.16
2022-09-14T11:38:35.347Z,59.70
2022-09-14T11:41:29.257Z,58.95
2022-09-14T11:44:10.554Z,59.32
2022-09-14T11:46:51.128Z,60.05
2022-09-14T11:49:51.334Z,59.50
2022-09-14T11:52:24.708Z,59.82
2022-09-14T11:54:55.237Z,60.28
2022-09-14T11:57:30.964Z,59.75
2022-09-14T12:00:08.878Z,59.94
2022-09-14T12:02:39.181Z,59.87
2022-09-14T12:05:10.439Z,59.27
2022-09-14T12:07:43.718Z,58.82
2022-09-14T12:10:13.862Z,58.73
2022-09-14T12:12:52.166Z,55.02
2022-09-14T12:15:25.006Z,56.45
2022-09-14T12:18:01.091Z,54.20
2022-09-14T12:20:41.167Z,54.96
2022-09-14T12:23:44.236Z,54.24
2022-09-14T12:26:31.170Z,52.52
2022-09-14T12:29:32.785Z,53.28
2022-09-14T12:32:06.107Z,55.42
2022-09-14T12:34:36.491Z,55.92
2022-09-14T12:37:35.334Z,52.78
2022-09-14T12:40:23.704Z,54.26
2022-09-14T12:42:54.545Z,55.96
2022-09-14T12:46:01.090Z,54.14
2022-09-14T12:48:49.526Z,54.17
2022-09-14T12:51:31.873Z,54.78
2022-09-14T12:54:08.274Z,55.05
2022-09-14T12:57:00.668Z,56.06
2022-09-14T12:59:48.823Z,55.90
2022-09-14T13:02:41.753Z,55.49
2022-09-14T13:05:18.262Z,56.50
2022-09-14T13:07:48.393Z,56.51
2022-09-14T13:10:37.222Z,55.38
2022-09-14T13:13:18.184Z,56.05
2022-09-14T13:15:56.748Z,55.83
2022-09-14T13:18:35.631Z,55.91
2022-09-14T13:21:21.744Z,55.91
2022-09-14T13:23:51.905Z,55.87
2022-09-14T13:26:29.077Z,56.74
2022-09-14T13:29:01.657Z,57.00
2022-09-14T13:31:37.696Z,56.80
2022-09-14T13:34:07.917Z,56.97
2022-09-14T13:36:43.643Z,56.78
2022-09-14T13:39:31.650Z,56.54
2022-09-14T13:42:03.138Z,57.18
2022-09-14T13:44:36.961Z,56.76
2022-09-14T13:47:07.500Z,56.98
2022-09-14T13:49:38.111Z,57.21
2022-09-14T13:53:00.592Z,55.35
2022-09-14T13:55:43.048Z,57.00
2022-09-14T13:58:23.736Z,56.17
2022-09-14T14:00:55.162Z,56.38
2022-09-14T14:03:28.087Z,56.37
2022-09-14T14:05:59.146Z,56.42
2022-09-14T14:08:37.165Z,56.26
2022-09-14T14:11:08.673Z,56.03
2022-09-14T14:13:39.036Z,55.87
2022-09-14T14:16:21.394Z,55.08
2022-09-14T14:18:54.424Z,56.06
2022-09-14T14:21:30.314Z,56.55
2022-09-14T14:24:27.171Z,55.08
2022-09-14T14:26:59.201Z,56.39
2022-09-14T14:29:29.344Z,56.46
2022-09-14T14:31:59.613Z,56.45
2022-09-14T14:34:30.010Z,56.36
2022-09-14T14:37:02.555Z,56.56
2022-09-14T14:39:32.773Z,56.70
2022-09-14T14:42:03.886Z,56.58
2022-09-14T14:44:34.717Z,56.76
2022-09-14T14:47:06.431Z,56.79
2022-09-14T14:49:37.329Z,56.57
2022-09-14T14:52:07.711Z,56.48
2022-09-14T14:54:41.244Z,56.24
2022-09-14T14:57:11.397Z,56.33
2022-09-14T14:59:41.732Z,56.18
2022-09-14T15:02:11.864Z,55.65
2022-09-14T15:04:41.977Z,55.94
2022-09-14T15:07:12.111Z,55.88
2022-09-14T15:09:42.295Z,55.71
2022-09-14T15:12:12.493Z,55.65
2022-09-14T15:14:42.578Z,55.58
2022-09-14T15:17:13.392Z,56.05
2022-09-14T15:19:43.490Z,56.10
2022-09-14T15:22:14.448Z,55.90
2022-09-14T15:24:44.998Z,55.73
2022-09-14T15:27:15.336Z,55.81
2022-09-14T15:29:45.458Z,56.09
2022-09-14T15:32:15.957Z,55.85
2022-09-14T15:34:47.207Z,55.64
2022-09-14T15:37:17.343Z,55.87
2022-09-14T15:39:50.751Z,55.87
2022-09-14T15:42:21.110Z,56.04
2022-09-14T15:44:52.265Z,55.74
2022-09-14T15:47:22.333Z,55.64
2022-09-14T15:49:53.056Z,55.71
2022-09-14T15:52:23.211Z,55.68
2022-09-14T15:54:54.783Z,55.75
2022-09-14T15:57:24.879Z,55.41
2022-09-14T15:59:55.046Z,55.52
2022-09-14T16:02:25.468Z,55.46
2022-09-14T16:04:55.774Z,55.15
2022-09-14T16:07:25.959Z,54.99
2022-09-14T16:09:58.875Z,54.78
2022-09-14T16:12:29.205Z,54.65
2022-09-14T16:14:59.267Z,54.60
2022-09-14T16:17:29.392Z,54.26
2022-09-14T16:19:59.536Z,54.43
2022-09-14T16:22:29.645Z,54.18
2022-09-14T16:24:59.850Z,54.20
2022-09-14T16:27:31.302Z,54.16
2022-09-14T16:30:01.596Z,54.31
2022-09-14T16:32:31.659Z,54.37
2022-09-14T16:35:05.876Z,54.48
2022-09-14T16:37:37.929Z,54.33
2022-09-14T16:40:08.556Z,54.40
2022-09-14T16:42:38.977Z,54.39
2022-09-14T16:45:09.813Z,54.29
2022-09-14T16:47:41.238Z,54.18
2022-09-14T16:50:16.624Z,54.19
2022-09-14T16:52:53.498Z,54.42
2022-09-14T16:55:27.313Z,54.53
2022-09-14T16:58:02.151Z,54.62
2022-09-14T17:00:34.509Z,54.77
2022-09-14T17:03:07.031Z,54.85
2022-09-14T17:05:38.183Z,54.92
2022-09-14T17:08:13.589Z,54.93
2022-09-14T17:10:50.202Z,54.67
2022-09-14T17:13:22.145Z,54.82
2022-09-14T17:15:58.924Z,54.87
2022-09-14T17:18:30.081Z,54.90
2022-09-14T17:21:08.127Z,54.93
2022-09-14T17:23:40.959Z,55.08
2022-09-14T17:26:19.556Z,54.67
2022-09-14T17:28:56.706Z,55.04
2022-09-14T17:31:44.798Z,54.94
2022-09-14T17:34:28.291Z,54.91
2022-09-14T17:37:03.081Z,55.14
2022-09-14T17:39:34.221Z,55.05
2022-09-14T17:42:04.861Z,55.25
2022-09-14T17:44:35.107Z,55.30
2022-09-14T17:47:05.486Z,55.06
2022-09-14T17:49:35.628Z,55.14
2022-09-14T17:52:06.491Z,55.07
2022-09-14T17:54:36.656Z,55.33
2022-09-14T17:57:06.757Z,55.59
2022-09-14T17:59:36.912Z,55.48
2022-09-14T18:02:06.956Z,55.41
2022-09-14T18:04:37.186Z,55.57
2022-09-14T18:07:07.800Z,55.32
2022-09-14T18:09:38.570Z,55.35
2022-09-14T18:12:10.426Z,55.48
2022-09-14T18:14:40.682Z,55.47
2022-09-14T18:17:10.739Z,55.49
2022-09-14T18:19:41.314Z,55.50
2022-09-14T18:22:11.415Z,55.46
2022-09-14T18:24:41.495Z,55.81
2022-09-14T18:27:11.566Z,55.86
2022-09-14T18:29:41.717Z,55.72
2022-09-14T18:32:11.807Z,55.49
2022-09-14T18:34:41.930Z,55.78
2022-09-14T18:37:12.075Z,55.73
2022-09-14T18:39:42.512Z,56.02
2022-09-14T18:42:12.572Z,55.86
2022-09-14T18:44:42.682Z,55.99
2022-09-14T18:47:13.545Z,55.96
2022-09-14T18:49:43.641Z,55.98
2022-09-14T18:52:13.986Z,56.10
2022-09-14T18:54:44.451Z,55.91
2022-09-14T18:57:17.701Z,56.07
2022-09-14T18:59:47.863Z,55.82
2022-09-14T19:02:17.972Z,55.73
2022-09-14T19:04:48.910Z,55.74
2022-09-14T19:07:19.015Z,55.82
2022-09-14T19:09:49.123Z,55.93
2022-09-14T19:12:19.264Z,56.16
2022-09-14T19:14:49.549Z,56.25
2022-09-14T19:17:20.077Z,56.40
2022-09-14T19:19:51.201Z,56.25
2022-09-14T19:22:23.095Z,56.31
2022-09-14T19:24:53.641Z,56.57
2022-09-14T19:27:24.176Z,56.35
2022-09-14T19:29:54.404Z,56.65
2022-09-14T19:32:24.457Z,57.05
2022-09-14T19:34:55.322Z,56.87
2022-09-14T19:37:25.423Z,57.11
2022-09-14T19:39:55.637Z,57.26
2022-09-14T19:42:26.128Z,57.22
2022-09-14T19:44:56.312Z,57.30
2022-09-14T19:47:26.391Z,57.38
2022-09-14T19:49:56.540Z,57.31
2022-09-14T19:52:26.630Z,57.56
2022-09-14T19:54:56.879Z,57.53
2022-09-14T19:57:27.131Z,57.64
2022-09-14T19:59:57.454Z,57.72
2022-09-14T20:02:27.741Z,57.51
2022-09-14T20:04:57.906Z,57.27
2022-09-14T20:07:28.496Z,57.48
2022-09-14T20:09:58.615Z,57.29
2022-09-14T20:12:28.742Z,57.38
2022-09-14T20:14:58.960Z,57.25
2022-09-14T20:17:29.132Z,57.43
2022-09-14T20:19:59.294Z,57.28
2022-09-14T20:22:29.396Z,57.17
2022-09-14T20:24:59.551Z,57.35
2022-09-14T20:27:29.673Z,57.23
2022-09-14T20:29:59.781Z,57.21
2022-09-14T20:32:30.247Z,57.36
2022-09-14T20:35:00.392Z,57.04
2022-09-14T20:37:31.560Z,57.09
2022-09-14T20:40:02.401Z,57.13
2022-09-14T20:42:32.543Z,57.18
2022-09-14T20:45:02.645Z,57.34
2022-09-14T20:47:32.760Z,57.15
2022-09-14T20:50:03.011Z,57.23
2022-09-14T20:52:33.095Z,57.12
2022-09-14T20:55:03.537Z,57.04
2022-09-14T20:57:33.678Z,57.02
2022-09-14T21:00:04.242Z,57.12
2022-09-14T21:02:34.349Z,57.15
2022-09-14T21:05:04.780Z,57.37
2022-09-14T21:07:34.852Z,57.08
2022-09-14T21:10:05.267Z,57.14
2022-09-14T21:12:35.412Z,57.07
2022-09-14T21:15:05.806Z,57.43
2022-09-14T21:17:36.216Z,57.06
2022-09-14T21:20:07.241Z,57.23
2022-09-14T21:22:37.351Z,57.22
2022-09-14T21:25:07.824Z,57.32
2022-09-14T21:27:37.868Z,57.41
2022-09-14T21:30:08.826Z,57.26
2022-09-14T21:32:39.141Z,57.30
2022-09-14T21:35:10.266Z,57.19
2022-09-14T21:37:40.413Z,57.43
2022-09-14T21:40:11.152Z,57.58
2022-09-14T21:42:41.461Z,57.84
2022-09-14T21:45:12.981Z,57.91
2022-09-14T21:47:43.316Z,57.84
2022-09-14T21:50:13.911Z,57.97
2022-09-14T21:52:44.895Z,57.89
2022-09-14T21:55:15.414Z,58.06
2022-09-14T21:57:48.272Z,58.03
2022-09-14T22:00:19.405Z,58.00
2022-09-14T22:02:49.711Z,58.21
2022-09-14T22:05:19.984Z,58.21
2022-09-14T22:07:50.280Z,58.27
2022-09-14T22:10:20.456Z,58.35
2022-09-14T22:12:50.622Z,58.39
2022-09-14T22:15:21.025Z,58.39
2022-09-14T22:17:51.471Z,58.40
2022-09-14T22:20:21.662Z,58.51
2022-09-14T22:22:52.052Z,58.62
2022-09-14T22:25:25.191Z,58.66
2022-09-14T22:27:55.611Z,58.51
2022-09-14T22:30:25.951Z,58.69
2022-09-14T22:32:56.221Z,58.66
2022-09-14T22:35:28.563Z,58.78
2022-09-14T22:37:58.850Z,58.85
2022-09-14T22:40:29.202Z,58.93
2022-09-14T22:42:59.573Z,59.07
2022-09-14T22:45:29.869Z,59.11
2022-09-14T22:48:00.075Z,59.25
2022-09-14T22:50:30.287Z,59.04
2022-09-14T22:53:00.551Z,59.23
2022-09-14T22:55:30.698Z,59.12
2022-09-14T22:58:00.895Z,59.06
2022-09-14T23:00:32.006Z,59.13
2022-09-14T23:03:02.172Z,59.20
2022-09-14T23:05:32.462Z,59.24
2022-09-14T23:08:03.202Z,58.98
2022-09-14T23:10:37.444Z,59.48
2022-09-14T23:13:07.582Z,59.10
2022-09-14T23:15:39.426Z,59.38
2022-09-14T23:18:09.742Z,59.21
2022-09-14T23:20:42.340Z,59.07
2022-09-14T23:23:12.724Z,59.38
2022-09-14T23:25:42.834Z,59.58
2022-09-14T23:28:12.971Z,59.55
2022-09-14T23:30:43.125Z,59.70
2022-09-14T23:33:13.199Z,59.74
2022-09-14T23:35:47.597Z,59.82
2022-09-14T23:38:17.630Z,59.74
2022-09-14T23:40:49.837Z,59.60
2022-09-14T23:43:20.344Z,59.85
2022-09-14T23:45:50.518Z,60.00
2022-09-14T23:48:20.985Z,59.82
2022-09-14T23:51:04.336Z,60.46
2022-09-14T23:53:35.299Z,59.97
2022-09-14T23:56:06.629Z,60.07
2022-09-14T23:58:36.996Z,60.23
